»·PEaware :: THT2180 EDDT-KONT

THT2180 :: EDDT-KONT

FLIGHT INFORMATION

Flight Status: Arrived
Operator:
Air Tahiti Nui
More flights by this operator :: More flights under this callsign
Pilot: Alan J. (5709)
Aircraft: Unknown
(A359)
More flights by this aircraft type
Origin: EDDT Tegel
Germany
Destination: KONT Ontario Intl
United States
More flights between these airports :: More routes between these airports
Route: +MLF J9 LAS NATEE EAGLZ1
File this flight plan on PilotEdge
Remarks:
Altitude:
(Current/Filed)
40,000ft
Speed:
(Current/Filed)
480kts
Departed: 14-Nov-17 07:04 PM
Arrived: 14-Nov-17 07:56 PM
Distance/Time
Traveled:
5004nm/0:52
Distance/Time
To Go:
Arrived

Flight Plot

Page will automatically refresh every two minutes.

Flight plan parsing failed; only flown route is shown


Map Options




Map Legend


Flown Route
Filed Route
Departure Airport
Arrival Airport
Navaid (VOR, NDB)
Fix

Horizontal Profiles

Position Reports

Time Latitude Longitude Heading Altitude Ground
Speed
14-Nov-17 19:08 37.400228 -113.782783 219 40178ft 430kts
14-Nov-17 19:09 37.299203 -113.862146 219 40174ft 430kts
14-Nov-17 19:10 37.197735 -113.941573 219 40174ft 430kts
14-Nov-17 19:11 37.096357 -114.020646 219 40174ft 430kts
14-Nov-17 19:12 36.995019 -114.099409 220 40174ft 431kts
14-Nov-17 19:13 36.893894 -114.177692 220 40159ft 432kts
14-Nov-17 19:14 36.791938 -114.256179 221 40173ft 429kts
14-Nov-17 19:15 36.705515 -114.353397 233 40164ft 417kts
14-Nov-17 19:16 36.625703 -114.457704 233 40145ft 417kts
14-Nov-17 19:17 36.546144 -114.561871 233 40130ft 417kts
14-Nov-17 19:18 36.466329 -114.666141 232 40099ft 417kts
14-Nov-17 19:19 36.386796 -114.769867 233 40127ft 418kts
14-Nov-17 19:20 36.306121 -114.873753 233 40128ft 419kts
14-Nov-17 19:21 36.224798 -114.977127 233 40128ft 420kts
14-Nov-17 19:22 36.143787 -115.079581 232 40129ft 417kts
14-Nov-17 19:23 36.053819 -115.171336 214 40145ft 437kts
14-Nov-17 19:24 35.939687 -115.225702 210 40164ft 441kts
14-Nov-17 19:25 35.825699 -115.278848 210 40161ft 441kts
14-Nov-17 19:26 35.710876 -115.332104 210 39680ft 443kts
14-Nov-17 19:27 35.604264 -115.399202 229 36989ft 416kts
14-Nov-17 19:28 35.526360 -115.502200 233 34294ft 414kts
14-Nov-17 19:29 35.450657 -115.603338 233 31604ft 396kts
14-Nov-17 19:30 35.381576 -115.695945 232 29434ft 387kts
14-Nov-17 19:31 35.309802 -115.791839 231 27643ft 380kts
14-Nov-17 19:32 35.239077 -115.885829 231 25956ft 373kts
14-Nov-17 19:33 35.169585 -115.978433 231 24761ft 369kts
14-Nov-17 19:34 35.101168 -116.069015 230 24151ft 354kts
14-Nov-17 19:35 35.034525 -116.156944 230 24146ft 354kts
14-Nov-17 19:36 34.965363 -116.242188 227 23434ft 352kts
14-Nov-17 19:37 34.897148 -116.318051 228 21859ft 349kts
14-Nov-17 19:38 34.828181 -116.399038 230 20571ft 348kts
14-Nov-17 19:39 34.767337 -116.487096 238 18778ft 337kts
14-Nov-17 19:40 34.712781 -116.578610 237 16992ft 333kts
14-Nov-17 19:41 34.658914 -116.669202 237 16297ft 331kts
14-Nov-17 19:42 34.605199 -116.760349 239 15796ft 332kts
14-Nov-17 19:43 34.560411 -116.857333 243 14638ft 328kts
14-Nov-17 19:44 34.506364 -116.946159 231 12930ft 330kts
14-Nov-17 19:45 34.446375 -117.030311 231 10943ft 332kts
14-Nov-17 19:46 34.387555 -117.112721 231 9955ft 320kts
14-Nov-17 19:47 34.312823 -117.167188 200 9134ft 315kts
14-Nov-17 19:48 34.235058 -117.198307 206 8922ft 280kts
14-Nov-17 19:49 34.160995 -117.227524 196 8704ft 286kts
14-Nov-17 19:50 34.084004 -117.251704 196 6914ft 284kts
14-Nov-17 19:51 34.011782 -117.275471 196 5361ft 269kts
14-Nov-17 19:52 33.954449 -117.251887 87 5070ft 241kts
14-Nov-17 19:53 34.004306 -117.228248 0 5093ft 223kts
14-Nov-17 19:54 34.066087 -117.228154 334 5099ft 222kts
14-Nov-17 19:55 34.067761 -117.296208 251 4392ft 231kts
14-Nov-17 19:56 34.054630 -117.368540 272 3847ft 201kts
14-Nov-17 19:57 34.055450 -117.425750 269 3702ft 146kts
14-Nov-17 19:58 34.054827 -117.473678 268 2691ft 150kts
14-Nov-17 19:59 34.055050 -117.521203 271 1937ft 141kts
14-Nov-17 20:00 34.054879 -117.568231 270 1233ft 140kts
14-Nov-17 20:01 34.054934 -117.607394 270 935ft 38kts
14-Nov-17 20:02 34.055547 -117.610220 20 939ft 0kts
14-Nov-17 20:03 34.057388 -117.610037 359 948ft 12kts
14-Nov-17 20:04 34.058694 -117.607714 37 950ft 6kts
14-Nov-17 20:05 34.059132 -117.607426 339 952ft 1kts
14-Nov-17 20:06 34.059369 -117.607674 315 953ft 0kts
14-Nov-17 20:07 34.059369 -117.607674 315 953ft 0kts
14-Nov-17 20:08 34.059369 -117.607674 315 953ft 0kts
14-Nov-17 20:09 34.059369 -117.607674 315 953ft 0kts

Navigation Log

Ident Type
Flight plan parsing failed, navigation log unavailable